Time;durP1;ratioP1;P1;durP2;ratioP2;P2;SDS_P1;SDS_P2;PMS_P1;PMS_P2;Temp;Humidity;BMP_temperature;BMP_pressure;BME280_temperature;BME280_humidity;BME280_pressure;Samples;Min_cycle;Max_cycle;Signal;HPM_P1;HPM_P2
2021/08/17 00:00:33;;;;;;;10.87;3.60;;;;;;;14.38;100.00;100161.31;5029913;28;20224;-74
2021/08/17 00:02:58;;;;;;;9.43;3.17;;;;;;;14.27;100.00;100173.59;5018168;28;20681;-72
2021/08/17 00:05:24;;;;;;;11.53;3.30;;;;;;;14.26;100.00;100163.75;5017566;28;20191;-72
2021/08/17 00:07:50;;;;;;;9.87;3.30;;;;;;;14.36;100.00;100168.22;5030833;28;20226;-72
2021/08/17 00:10:18;;;;;;;10.23;3.20;;;;;;;14.41;100.00;100171.63;5046428;28;20191;-71
2021/08/17 00:12:48;;;;;;;10.30;3.50;;;;;;;14.45;100.00;100174.53;5034251;28;20208;-72
2021/08/17 00:15:17;;;;;;;11.47;3.23;;;;;;;14.47;100.00;100184.06;5033625;28;20657;-71
2021/08/17 00:17:42;;;;;;;14.00;3.30;;;;;;;14.48;100.00;100161.06;5058389;28;20168;-72
2021/08/17 00:20:09;;;;;;;12.00;3.50;;;;;;;14.59;100.00;100159.72;5018616;28;20683;-73
2021/08/17 00:22:37;;;;;;;8.70;3.20;;;;;;;14.53;100.00;100152.75;5034643;28;20848;-74
2021/08/17 00:25:07;;;;;;;11.17;3.30;;;;;;;14.38;100.00;100166.78;5023916;28;20188;-73
2021/08/17 00:27:34;;;;;;;9.73;3.10;;;;;;;14.36;100.00;100168.22;4997651;28;20269;-74
2021/08/17 00:30:00;;;;;;;13.33;3.60;;;;;;;14.33;100.00;100186.00;5029690;28;20188;-76
2021/08/17 00:32:26;;;;;;;13.10;3.33;;;;;;;14.35;100.00;100172.84;5067466;28;20215;-74
2021/08/17 00:34:56;;;;;;;10.77;3.70;;;;;;;14.36;100.00;100190.88;5017766;28;20180;-73
2021/08/17 00:37:24;;;;;;;11.60;4.43;;;;;;;14.49;100.00;100189.22;5066237;28;20212;-73
2021/08/17 00:39:52;;;;;;;14.63;3.73;;;;;;;14.47;100.00;100192.25;5033792;28;20199;-72
2021/08/17 00:42:20;;;;;;;16.63;4.10;;;;;;;14.48;100.00;100182.94;5017648;28;20231;-70
2021/08/17 00:44:49;;;;;;;16.13;3.97;;;;;;;14.36;100.00;100190.88;5057071;28;20237;-73
2021/08/17 00:47:19;;;;;;;10.13;3.77;;;;;;;14.43;100.00;100184.97;5060275;28;20214;-72
2021/08/17 00:49:46;;;;;;;13.07;3.73;;;;;;;14.41;100.00;100198.97;5031332;28;20196;-74
2021/08/17 00:52:15;;;;;;;14.97;4.47;;;;;;;14.44;100.00;100192.88;5039828;28;20251;-73
2021/08/17 00:54:45;;;;;;;15.20;4.10;;;;;;;14.48;100.00;100193.88;5028212;28;20215;-73
2021/08/17 00:57:11;;;;;;;12.97;4.10;;;;;;;14.43;100.00;100198.63;5040837;28;20246;-71
2021/08/17 00:59:37;;;;;;;22.80;4.40;;;;;;;14.47;100.00;100203.19;5029858;28;20634;-71
2021/08/17 01:02:03;;;;;;;22.47;4.63;;;;;;;14.53;100.00;100198.41;4996637;28;20942;-72
2021/08/17 01:04:31;;;;;;;20.47;4.70;;;;;;;14.57;100.00;100189.28;5047239;28;20657;-73
2021/08/17 01:06:59;;;;;;;19.30;4.73;;;;;;;14.56;100.00;100190.41;5016631;28;20230;-73
2021/08/17 01:09:27;;;;;;;23.10;4.67;;;;;;;14.61;100.00;100189.47;5012885;28;20212;-73
2021/08/17 01:11:52;;;;;;;19.60;5.27;;;;;;;14.58;100.00;100193.66;4996852;28;20761;-73
2021/08/17 01:14:20;;;;;;;20.90;5.23;;;;;;;14.66;100.00;100192.91;5064181;28;20191;-74
2021/08/17 01:16:46;;;;;;;23.47;5.13;;;;;;;14.74;100.00;100201.19;5030784;28;20213;-74
2021/08/17 01:19:13;;;;;;;22.40;5.10;;;;;;;14.63;100.00;100191.59;5027522;28;20199;-72
2021/08/17 01:21:39;;;;;;;19.73;5.93;;;;;;;14.68;100.00;100188.72;5020202;28;20231;-74
2021/08/17 01:24:07;;;;;;;19.77;4.90;;;;;;;14.63;100.00;100199.81;5035466;28;20210;-72
2021/08/17 01:26:32;;;;;;;22.23;5.40;;;;;;;14.82;100.00;100199.63;5016576;28;20219;-73
2021/08/17 01:29:00;;;;;;;23.30;5.30;;;;;;;14.83;100.00;100206.69;5020203;28;20203;-74
2021/08/17 01:31:26;;;;;;;15.83;5.03;;;;;;;14.63;100.00;100209.91;5036783;28;20215;-73
2021/08/17 01:33:54;;;;;;;22.97;5.73;;;;;;;14.67;100.00;100208.19;5037378;28;20187;-73
2021/08/17 01:36:20;;;;;;;25.70;5.90;;;;;;;14.68;100.00;100215.25;5036222;28;20227;-74
2021/08/17 01:38:52;;;;;;;23.97;5.77;;;;;;;14.65;100.00;100215.88;5033801;28;20200;-73
2021/08/17 01:41:17;;;;;;;17.73;4.90;;;;;;;14.75;100.00;100215.66;5017887;28;20224;-73
2021/08/17 01:43:49;;;;;;;22.30;5.27;;;;;;;14.74;100.00;100211.28;5036617;28;20269;-72
2021/08/17 01:46:15;;;;;;;19.53;4.27;;;;;;;14.60;100.00;100213.28;5026597;28;20215;-73
2021/08/17 01:48:45;;;;;;;22.17;5.03;;;;;;;14.57;100.00;100219.34;5026661;28;20207;-73
2021/08/17 01:51:11;;;;;;;20.50;5.07;;;;;;;14.57;100.00;100208.41;5020431;28;20226;-75
2021/08/17 01:53:39;;;;;;;18.13;5.10;;;;;;;14.64;100.00;100217.00;5058800;28;20669;-73
2021/08/17 01:56:08;;;;;;;17.50;4.90;;;;;;;14.66;100.00;100236.63;5035734;28;20207;-73
2021/08/17 01:58:34;;;;;;;15.20;4.40;;;;;;;14.57;100.00;100233.00;5019613;28;20684;-74
2021/08/17 02:00:59;;;;;;;21.33;5.17;;;;;;;14.61;100.00;100234.00;5036389;28;20230;-73
2021/08/17 02:03:25;;;;;;;19.20;5.20;;;;;;;14.64;100.00;100236.94;5036200;28;20202;-73
2021/08/17 02:05:50;;;;;;;21.67;4.87;;;;;;;14.62;100.00;100221.16;5035689;28;20315;-71
2021/08/17 02:08:18;;;;;;;20.63;5.30;;;;;;;14.75;100.00;100224.66;5036047;28;20219;-72
2021/08/17 02:10:44;;;;;;;21.60;5.87;;;;;;;14.59;100.00;100230.78;5069213;28;20249;-72
2021/08/17 02:13:09;;;;;;;19.50;5.07;;;;;;;14.62;100.00;100221.97;5035791;28;20211;-73
2021/08/17 02:15:37;;;;;;;20.17;4.90;;;;;;;14.59;100.00;100228.03;5036638;28;20216;-72
2021/08/17 02:18:03;;;;;;;18.03;5.00;;;;;;;14.62;100.00;100243.03;5054544;28;20187;-72
2021/08/17 02:20:29;;;;;;;19.97;4.90;;;;;;;14.66;100.00;100245.63;5020231;28;20219;-70
2021/08/17 02:22:54;;;;;;;16.00;4.97;;;;;;;14.61;100.00;100242.22;5056080;28;20264;-73
2021/08/17 02:25:20;;;;;;;18.90;4.90;;;;;;;14.54;100.00;100241.84;5062508;28;20304;-73
2021/08/17 02:27:45;;;;;;;22.17;5.30;;;;;;;14.60;100.00;100240.59;5036412;28;20642;-74
2021/08/17 02:30:11;;;;;;;16.33;5.20;;;;;;;14.59;100.00;100236.25;5015163;28;20214;-73
2021/08/17 02:32:39;;;;;;;19.13;5.53;;;;;;;14.57;100.00;100243.16;5016466;28;20577;-74
2021/08/17 02:35:06;;;;;;;22.33;5.07;;;;;;;14.56;100.00;100250.53;5026048;28;20175;-74
2021/08/17 02:37:33;;;;;;;14.70;5.00;;;;;;;14.58;100.00;100255.69;5035799;28;20234;-73
2021/08/17 02:40:01;;;;;;;15.97;4.57;;;;;;;14.58;100.00;100270.19;5008229;28;20184;-71
2021/08/17 02:42:30;;;;;;;15.60;4.57;;;;;;;14.46;100.00;100261.69;5015145;28;20223;-75
2021/08/17 02:44:56;;;;;;;15.13;5.33;;;;;;;14.51;100.00;100264.31;5049208;28;20180;-74
2021/08/17 02:47:22;;;;;;;21.17;5.63;;;;;;;14.46;100.00;100266.34;5050090;28;20219;-73
2021/08/17 02:49:50;;;;;;;21.53;5.23;;;;;;;14.40;100.00;100271.13;5020537;28;20218;-72
2021/08/17 02:52:16;;;;;;;17.97;5.27;;;;;;;14.41;100.00;100270.03;5052176;28;20231;-71
2021/08/17 02:54:48;;;;;;;20.13;5.63;;;;;;;14.32;100.00;100281.94;5061138;28;20199;-74
2021/08/17 02:57:13;;;;;;;15.70;5.00;;;;;;;14.33;100.00;100276.19;5040555;28;20230;-77
2021/08/17 02:59:39;;;;;;;20.90;5.10;;;;;;;14.24;100.00;100275.28;5034919;28;20168;-72
2021/08/17 03:02:06;;;;;;;17.77;5.33;;;;;;;14.27;100.00;100276.63;5034682;28;20239;-73
2021/08/17 03:04:32;;;;;;;13.47;4.87;;;;;;;14.24;100.00;100275.28;5035407;28;20222;-72
2021/08/17 03:07:00;;;;;;;14.30;4.97;;;;;;;14.28;100.00;100270.84;5035041;28;20219;-72
2021/08/17 03:09:28;;;;;;;20.03;5.63;;;;;;;14.19;100.00;100262.84;5034669;28;20215;-73
2021/08/17 03:11:56;;;;;;;23.43;7.23;;;;;;;14.22;100.00;100251.31;5014542;28;20236;-72
2021/08/17 03:14:24;;;;;;;21.53;5.87;;;;;;;14.20;100.00;100250.81;5015122;28;20177;-73
2021/08/17 03:16:52;;;;;;;21.60;5.80;;;;;;;14.15;100.00;100264.56;5053071;28;20312;-75
2021/08/17 03:19:17;;;;;;;15.97;5.40;;;;;;;14.07;100.00;100273.50;5022447;28;20271;-72
2021/08/17 03:21:45;;;;;;;23.33;5.87;;;;;;;14.15;100.00;100280.97;5014351;28;20315;-73
2021/08/17 03:24:11;;;;;;;20.43;6.17;;;;;;;14.20;100.00;100280.88;5038972;28;20642;-76
2021/08/17 03:26:39;;;;;;;21.80;5.97;;;;;;;14.12;100.00;100276.94;5048564;28;20220;-76
2021/08/17 03:29:04;;;;;;;18.43;6.03;;;;;;;14.12;100.00;100287.84;5034200;28;20234;-75
2021/08/17 03:31:37;;;;;;;22.23;5.87;;;;;;;14.04;100.00;100285.00;5030785;28;20624;-72
2021/08/17 03:34:03;;;;;;;23.03;6.13;;;;;;;14.08;100.00;100286.03;5015268;28;20840;-75
2021/08/17 03:36:31;;;;;;;21.50;6.07;;;;;;;14.08;100.00;100288.75;5026682;28;20227;-73
2021/08/17 03:38:56;;;;;;;17.90;5.97;;;;;;;14.06;100.00;100299.19;5018886;28;20164;-72
2021/08/17 03:41:24;;;;;;;17.53;6.27;;;;;;;14.00;100.00;100284.78;5017987;28;20227;-74
2021/08/17 03:43:50;;;;;;;21.83;6.23;;;;;;;13.91;100.00;100280.31;5034772;28;20428;-73
2021/08/17 03:46:18;;;;;;;23.07;6.37;;;;;;;13.96;100.00;100302.88;5022050;28;20686;-73
2021/08/17 03:48:43;;;;;;;20.33;6.33;;;;;;;13.94;100.00;100296.13;5034339;28;20740;-75
2021/08/17 03:51:09;;;;;;;16.17;6.23;;;;;;;13.95;100.00;100295.00;5017487;28;20226;-73
2021/08/17 03:53:39;;;;;;;18.57;6.33;;;;;;;13.98;100.00;100303.38;5057670;28;20211;-73
2021/08/17 03:56:10;;;;;;;21.20;6.23;;;;;;;13.94;100.00;100309.78;5019688;28;20314;-74
2021/08/17 03:58:36;;;;;;;17.13;6.40;;;;;;;13.89;100.00;100305.19;5031133;28;20218;-75
2021/08/17 04:01:01;;;;;;;17.33;6.43;;;;;;;14.00;100.00;100300.34;5050647;28;20212;-74
2021/08/17 04:03:29;;;;;;;18.20;6.63;;;;;;;13.90;100.00;100309.56;5034728;28;20204;-73
2021/08/17 04:05:55;;;;;;;16.43;6.50;;;;;;;13.92;100.00;100309.25;5033874;28;20231;-75
2021/08/17 04:08:20;;;;;;;20.03;6.40;;;;;;;13.90;100.00;100311.50;5017895;28;20210;-74
2021/08/17 04:10:48;;;;;;;14.80;5.63;;;;;;;13.92;100.00;100309.25;5034142;28;20223;-76
2021/08/17 04:13:14;;;;;;;17.07;5.57;;;;;;;13.85;100.00;100319.78;5053734;28;20211;-73
2021/08/17 04:15:40;;;;;;;12.77;5.67;;;;;;;13.86;100.00;100321.38;5019724;28;20602;-73
2021/08/17 04:18:08;;;;;;;17.63;6.40;;;;;;;13.79;100.00;100320.97;5079121;28;20175;-74
2021/08/17 04:20:35;;;;;;;18.27;5.60;;;;;;;13.87;100.00;100318.34;5052086;28;20215;-73
2021/08/17 04:23:03;;;;;;;20.00;6.17;;;;;;;13.76;100.00;100313.38;5052320;28;20207;-75
2021/08/17 04:25:31;;;;;;;18.73;6.57;;;;;;;13.92;100.00;100328.38;5038882;28;20526;-75
2021/08/17 04:27:56;;;;;;;20.30;6.30;;;;;;;13.87;100.00;100323.00;5036418;28;20218;-75
2021/08/17 04:30:24;;;;;;;16.90;6.33;;;;;;;13.76;100.00;100335.22;5017569;28;20256;-75
2021/08/17 04:32:52;;;;;;;16.03;7.07;;;;;;;13.89;100.00;100342.63;5031100;28;20200;-74
2021/08/17 04:35:20;;;;;;;18.93;6.20;;;;;;;13.91;100.00;100343.94;5030785;28;20287;-73
2021/08/17 04:37:46;;;;;;;21.67;6.40;;;;;;;13.86;100.00;100345.94;5029561;28;20218;-74
2021/08/17 04:40:13;;;;;;;19.13;6.93;;;;;;;13.84;100.00;100342.72;5033613;28;20684;-73
2021/08/17 04:42:40;;;;;;;15.80;5.80;;;;;;;13.79;100.00;100352.91;5034286;28;20199;-74
2021/08/17 04:45:09;;;;;;;17.30;6.80;;;;;;;13.81;100.00;100362.44;5033920;28;20245;-74
2021/08/17 04:47:37;;;;;;;19.90;6.20;;;;;;;13.80;100.00;100363.53;5030740;28;20223;-73
2021/08/17 04:50:05;;;;;;;21.40;6.33;;;;;;;13.89;100.00;100362.53;5012993;28;20195;-75
2021/08/17 04:52:35;;;;;;;23.00;7.23;;;;;;;13.85;100.00;100356.06;5031248;28;20287;-74
2021/08/17 04:55:01;;;;;;;16.80;5.50;;;;;;;13.70;100.00;100377.38;5035659;28;20180;-77
2021/08/17 04:57:26;;;;;;;15.70;5.97;;;;;;;13.78;100.00;100368.50;5033558;28;20227;-74
2021/08/17 04:59:54;;;;;;;21.37;5.60;;;;;;;13.81;100.00;100367.06;5010770;28;20181;-74
2021/08/17 05:02:22;;;;;;;19.93;5.20;;;;;;;13.75;100.00;100374.53;5035573;28;20224;-76
2021/08/17 05:04:48;;;;;;;12.87;5.30;;;;;;;13.81;100.00;100392.47;5063876;28;20643;-77
2021/08/17 05:07:13;;;;;;;17.87;5.30;;;;;;;13.78;100.00;100384.88;5033433;28;20228;-74
2021/08/17 05:09:39;;;;;;;15.87;5.10;;;;;;;13.80;100.00;100393.56;5047255;28;20694;-74
2021/08/17 05:12:05;;;;;;;16.00;4.90;;;;;;;13.80;100.00;100390.84;5026653;28;20224;-76
2021/08/17 05:14:35;;;;;;;19.50;5.43;;;;;;;13.77;100.00;100399.63;4994823;28;20203;-77
2021/08/17 05:17:00;;;;;;;13.93;4.70;;;;;;;13.64;100.00;100397.66;5021438;28;20275;-74
2021/08/17 05:19:26;;;;;;;16.57;5.30;;;;;;;13.67;100.00;100402.53;5043328;28;20624;-73
2021/08/17 05:21:53;;;;;;;23.40;5.37;;;;;;;13.68;100.00;100404.16;4996074;28;20233;-75
2021/08/17 05:24:19;;;;;;;16.07;5.03;;;;;;;13.72;100.00;100407.91;5045474;28;20665;-73
2021/08/17 05:26:47;;;;;;;14.37;4.70;;;;;;;13.81;100.00;100406.13;5041587;28;20724;-74
2021/08/17 05:29:15;;;;;;;17.97;4.80;;;;;;;13.73;100.00;100409.50;5032220;28;20204;-72
2021/08/17 05:31:41;;;;;;;16.53;4.67;;;;;;;13.66;100.00;100413.75;5031681;28;20217;-77
2021/08/17 05:34:06;;;;;;;19.37;4.83;;;;;;;13.77;100.00;100410.53;5027246;28;20181;-75
2021/08/17 05:36:34;;;;;;;14.90;4.30;;;;;;;13.88;100.00;100420.19;5011136;28;20240;-75
2021/08/17 05:39:03;;;;;;;17.63;5.03;;;;;;;13.83;100.00;100420.28;5014351;28;20553;-74
2021/08/17 05:41:29;;;;;;;13.53;4.70;;;;;;;13.88;100.00;100433.81;5032169;28;20605;-77
2021/08/17 05:43:54;;;;;;;16.10;4.77;;;;;;;13.86;100.00;100423.22;5063381;28;20185;-76
2021/08/17 05:46:22;;;;;;;17.83;4.80;;;;;;;13.93;100.00;100426.34;5054664;28;20216;-74
2021/08/17 05:48:50;;;;;;;18.70;5.00;;;;;;;13.88;100.00;100422.91;5042938;28;20232;-74
2021/08/17 05:51:18;;;;;;;20.20;5.37;;;;;;;13.81;100.00;100427.97;5029715;28;20224;-73
2021/08/17 05:53:44;;;;;;;14.10;4.40;;;;;;;13.71;100.00;100433.56;5029260;28;20231;-74
2021/08/17 05:56:09;;;;;;;18.40;4.67;;;;;;;13.79;100.00;100441.09;5008620;28;20223;-77
2021/08/17 05:58:35;;;;;;;18.83;4.80;;;;;;;13.72;100.00;100440.66;5013719;28;20181;-74
2021/08/17 06:01:05;;;;;;;15.27;4.77;;;;;;;13.76;100.00;100438.97;5033086;28;20297;-75
2021/08/17 06:03:31;;;;;;;18.30;5.07;;;;;;;13.70;100.00;100442.88;5035136;28;20613;-73
2021/08/17 06:05:57;;;;;;;16.70;4.50;;;;;;;13.68;100.00;100433.34;5033004;28;20217;-72
2021/08/17 06:08:25;;;;;;;17.07;4.63;;;;;;;13.74;100.00;100443.91;5034807;28;20592;-74
2021/08/17 06:10:53;;;;;;;13.30;4.63;;;;;;;13.64;100.00;100437.78;5023400;28;20269;-74
2021/08/17 06:13:25;;;;;;;12.57;4.00;;;;;;;13.63;100.00;100431.53;5029856;28;20216;-75
2021/08/17 06:15:51;;;;;;;18.20;4.67;;;;;;;13.77;100.00;100439.75;5024232;28;20214;-73
2021/08/17 06:18:16;;;;;;;17.10;4.63;;;;;;;13.84;100.00;100438.28;5030991;28;20563;-76
2021/08/17 06:20:42;;;;;;;13.57;4.30;;;;;;;13.84;100.00;100435.53;5018915;28;20216;-75
2021/08/17 06:23:08;;;;;;;12.03;4.27;;;;;;;13.92;100.00;100445.81;5022769;28;20211;-74
2021/08/17 06:25:34;;;;;;;15.00;4.70;;;;;;;14.01;100.00;100436.66;5016786;28;20224;-72
2021/08/17 06:28:02;;;;;;;15.80;4.10;;;;;;;13.85;100.00;100450.81;5035851;28;20681;-73
2021/08/17 06:30:28;;;;;;;14.13;4.00;;;;;;;13.87;100.00;100454.88;5019207;28;20223;-73
2021/08/17 06:32:54;;;;;;;12.77;4.33;;;;;;;13.82;100.00;100441.28;5069283;28;20219;-71
2021/08/17 06:35:20;;;;;;;16.67;4.30;;;;;;;13.88;100.00;100450.22;5019352;28;20190;-73
2021/08/17 06:37:46;;;;;;;14.13;5.47;;;;;;;13.86;100.00;100446.97;5036214;28;20181;-73
2021/08/17 06:40:14;;;;;;;13.47;3.93;;;;;;;13.89;100.00;100441.72;5031998;28;20234;-72
2021/08/17 06:42:40;;;;;;;15.67;3.97;;;;;;;14.01;100.00;100449.44;5032268;28;20200;-74
2021/08/17 06:45:06;;;;;;;11.97;4.10;;;;;;;14.10;100.00;100447.69;5048061;28;20211;-73
2021/08/17 06:47:31;;;;;;;12.53;3.70;;;;;;;14.07;100.00;100451.03;5028106;28;20216;-73
2021/08/17 06:50:04;;;;;;;14.97;4.40;;;;;;;14.19;100.00;100457.59;5056200;28;20281;-74
2021/08/17 06:52:30;;;;;;;16.67;3.63;;;;;;;14.05;100.00;100453.25;5052222;28;20247;-72
2021/08/17 06:54:56;;;;;;;14.27;4.27;;;;;;;14.07;100.00;100461.97;5040580;28;20172;-74
2021/08/17 06:57:26;;;;;;;12.70;3.70;;;;;;;14.06;100.00;100457.59;5051111;28;20711;-73
2021/08/17 06:59:59;;;;;;;16.73;4.00;;;;;;;14.08;100.00;100463.56;5022704;28;20630;-73
2021/08/17 07:02:27;;;;;;;17.70;3.90;;;;;;;14.16;100.00;100451.97;5015379;28;20220;-72
2021/08/17 07:04:53;;;;;;;14.47;4.10;;;;;;;14.27;100.00;100448.75;5028592;28;20669;-73
2021/08/17 07:07:21;;;;;;;17.57;4.60;;;;;;;14.22;100.00;100469.88;5068031;28;20286;-73
2021/08/17 07:09:46;;;;;;;13.43;3.93;;;;;;;14.16;100.00;100457.44;5014845;28;20212;-72
2021/08/17 07:12:14;;;;;;;11.00;3.93;;;;;;;14.24;100.00;100463.78;5030778;28;20224;-73
2021/08/17 07:14:44;;;;;;;12.77;3.30;;;;;;;14.45;100.00;100450.56;5052369;28;20233;-72
2021/08/17 07:17:10;;;;;;;9.50;3.73;;;;;;;14.29;100.00;100462.91;5035006;28;20254;-72
2021/08/17 07:19:35;;;;;;;13.30;4.07;;;;;;;14.40;100.00;100459.69;5045019;28;20207;-73
2021/08/17 07:22:04;;;;;;;13.13;3.57;;;;;;;14.48;100.00;100449.97;5017765;28;20233;-76
2021/08/17 07:24:32;;;;;;;7.93;3.17;;;;;;;14.49;100.00;100459.81;5042722;28;20206;-72
2021/08/17 07:27:05;;;;;;;11.43;3.40;;;;;;;14.63;100.00;100458.69;5067886;28;20306;-72
2021/08/17 07:29:31;;;;;;;7.97;3.03;;;;;;;14.46;100.00;100458.47;5047106;28;20239;-73
2021/08/17 07:31:59;;;;;;;9.83;2.67;;;;;;;14.61;100.00;100463.63;5031698;28;20318;-74
2021/08/17 07:34:29;;;;;;;9.53;3.10;;;;;;;14.63;100.00;100458.69;5037443;28;20209;-76
2021/08/17 07:36:55;;;;;;;12.63;3.07;;;;;;;14.84;100.00;100455.25;5034102;28;20223;-76
2021/08/17 07:39:23;;;;;;;9.80;2.80;;;;;;;14.83;100.00;100458.28;5032988;28;20393;-74
2021/08/17 07:41:51;;;;;;;13.10;2.73;;;;;;;15.00;100.00;100464.78;5050201;28;20227;-74
2021/08/17 07:44:17;;;;;;;9.97;2.90;;;;;;;15.00;100.00;100460.09;5050849;28;20770;-75
2021/08/17 07:46:43;;;;;;;7.30;2.73;;;;;;;15.01;100.00;100469.91;5025240;28;20215;-72
2021/08/17 07:49:13;;;;;;;9.63;3.17;;;;;;;14.99;100.00;100462.34;5030971;28;20556;-74
2021/08/17 07:51:38;;;;;;;10.23;2.77;;;;;;;15.04;100.00;100460.31;5034660;28;20815;-74
2021/08/17 07:54:04;;;;;;;9.20;2.57;;;;;;;15.08;100.00;100467.59;5077011;28;20191;-73
2021/08/17 07:56:29;;;;;;;8.60;2.43;;;;;;;15.16;100.00;100480.59;5017482;28;20223;-73
2021/08/17 07:58:57;;;;;;;11.70;2.83;;;;;;;15.14;100.00;100466.38;5034136;28;20184;-75
2021/08/17 08:01:23;;;;;;;10.53;2.43;;;;;;;15.15;100.00;100465.28;5014282;28;20239;-72
2021/08/17 08:03:49;;;;;;;13.80;3.37;;;;;;;15.15;100.00;100473.50;5030836;28;20712;-72
2021/08/17 08:06:18;;;;;;;10.67;2.70;;;;;;;15.31;100.00;100474.78;5033660;28;20223;-73
2021/08/17 08:08:43;;;;;;;9.43;2.83;;;;;;;15.42;100.00;100473.44;5018218;28;20216;-72
2021/08/17 08:11:09;;;;;;;11.33;2.40;;;;;;;15.52;100.00;100481.41;5014018;28;20268;-73
2021/08/17 08:13:34;;;;;;;10.20;2.63;;;;;;;15.61;100.00;100482.31;5030690;28;20216;-74
2021/08/17 08:16:06;;;;;;;7.53;2.53;;;;;;;15.80;100.00;100487.31;5022187;28;20264;-75
2021/08/17 08:18:31;;;;;;;8.60;2.47;;;;;;;15.68;100.00;100477.22;5041896;28;20179;-71
2021/08/17 08:20:59;;;;;;;8.20;2.30;;;;;;;15.69;100.00;100481.56;5022058;28;20220;-73
2021/08/17 08:23:25;;;;;;;9.60;2.60;;;;;;;15.84;100.00;100474.63;5024808;28;20302;-73
2021/08/17 08:25:51;;;;;;;12.02;2.85;;;;;;;15.82;100.00;100482.34;5058222;28;20215;-73
2021/08/17 08:28:19;;;;;;;8.03;2.00;;;;;;;15.80;100.00;100484.56;5017257;28;20586;-75
2021/08/17 08:30:45;;;;;;;7.88;2.22;;;;;;;15.98;100.00;100480.03;5029482;28;20228;-73
2021/08/17 08:33:10;;;;;;;10.30;2.30;;;;;;;15.99;100.00;100487.94;5046620;28;20266;-75
2021/08/17 08:35:36;;;;;;;8.75;2.10;;;;;;;16.03;100.00;100488.94;5016462;28;20231;-73
2021/08/17 08:38:04;;;;;;;8.38;2.08;;;;;;;16.06;100.00;100485.56;5017244;28;20191;-72
2021/08/17 08:40:30;;;;;;;7.00;2.45;;;;;;;16.10;100.00;100486.56;5030027;28;20238;-73
2021/08/17 08:42:55;;;;;;;8.23;1.92;;;;;;;16.13;100.00;100494.16;5013746;28;20211;-73
2021/08/17 08:45:23;;;;;;;6.68;2.17;;;;;;;16.46;100.00;100495.50;5032437;28;20184;-73
2021/08/17 08:47:51;;;;;;;9.73;2.10;;;;;;;16.49;100.00;100483.94;5032467;28;20259;-73
2021/08/17 08:50:17;;;;;;;9.38;2.22;;;;;;;16.58;100.00;100491.88;5016168;28;20646;-74
2021/08/17 08:52:45;;;;;;;8.57;2.05;;;;;;;16.59;100.00;100493.50;5035316;28;20200;-74
2021/08/17 08:55:13;;;;;;;9.05;2.10;;;;;;;16.66;100.00;100476.56;5022309;28;20563;-75
2021/08/17 08:57:41;;;;;;;8.95;2.22;;;;;;;16.56;100.00;100470.59;5030331;28;20196;-73
2021/08/17 09:00:09;;;;;;;8.52;2.00;;;;;;;16.83;100.00;100480.22;5052786;28;21047;-73
2021/08/17 09:02:35;;;;;;;7.18;1.92;;;;;;;16.92;100.00;100474.75;5033866;28;20211;-73
2021/08/17 09:05:08;;;;;;;7.10;2.22;;;;;;;16.82;100.00;100486.81;5033802;28;20741;-73
2021/08/17 09:07:46;;;;;;;6.57;2.00;;;;;;;16.79;100.00;100490.19;4994304;28;20220;-73
2021/08/17 09:10:13;;;;;;;7.93;1.98;;;;;;;16.95;100.00;100485.91;4994301;28;20224;-75
2021/08/17 09:12:40;;;;;;;10.02;2.22;;;;;;;17.12;100.00;100492.25;5013371;28;20702;-74
2021/08/17 09:15:33;;;;;;;7.47;2.30;;;;;;;17.15;100.00;100493.56;4981578;28;20229;-72
2021/08/17 09:18:06;;;;;;;6.93;1.90;;;;;;;17.41;100.00;100484.25;4998337;28;20302;-72
2021/08/17 09:20:39;;;;;;;8.50;2.28;;;;;;;17.92;100.00;100485.09;5028869;28;20219;-74
2021/08/17 09:23:20;;;;;;;10.52;2.60;;;;;;;18.12;100.00;100488.81;5048951;28;20239;-73
2021/08/17 09:25:46;;;;;;;9.98;2.10;;;;;;;18.44;100.00;100485.53;5041939;28;20276;-73
2021/08/17 09:28:35;;;;;;;8.55;2.17;;;;;;;18.57;100.00;100484.50;5045872;28;20193;-75
2021/08/17 09:31:02;;;;;;;7.22;2.17;;;;;;;18.46;100.00;100487.94;5029423;28;20235;-73
2021/08/17 09:33:36;;;;;;;6.63;2.30;;;;;;;18.28;100.00;100476.19;5030157;28;20208;-73
2021/08/17 09:36:04;;;;;;;8.98;2.60;;;;;;;18.25;100.00;100485.09;5057318;28;20243;-75
2021/08/17 09:38:30;;;;;;;5.88;1.92;;;;;;;18.00;100.00;100484.28;5037607;28;20183;-74
2021/08/17 09:40:59;;;;;;;9.48;2.55;;;;;;;18.17;100.00;100480.41;5036712;28;20226;-73
2021/08/17 09:43:26;;;;;;;6.15;1.92;;;;;;;17.93;100.00;100490.28;5037100;28;20650;-74
2021/08/17 09:45:51;;;;;;;7.40;2.50;;;;;;;17.82;100.00;100482.69;5020270;28;20224;-74
2021/08/17 09:48:28;;;;;;;6.25;1.73;;;;;;;17.63;100.00;100478.63;5043670;28;20203;-73
2021/08/17 09:50:56;;;;;;;6.60;2.13;;;;;;;17.58;100.00;100476.88;5039590;28;20234;-76
2021/08/17 09:53:22;;;;;;;6.60;1.92;;;;;;;17.82;100.00;100479.94;5028515;28;20198;-73
2021/08/17 09:55:54;;;;;;;8.35;2.13;;;;;;;17.70;100.00;100479.78;5044642;28;20214;-73
2021/08/17 09:58:25;;;;;;;7.38;2.10;;;;;;;17.69;100.00;100485.59;5023187;28;20179;-75
2021/08/17 10:00:58;;;;;;;5.13;2.00;;;;;;;17.40;100.00;100496.41;5036547;28;20632;-74
2021/08/17 10:03:24;;;;;;;7.88;2.47;;;;;;;17.34;100.00;100486.66;5016897;28;20204;-73
2021/08/17 10:05:50;;;;;;;6.97;2.55;;;;;;;17.58;100.00;100493.34;5016202;28;20255;-73
2021/08/17 10:08:21;;;;;;;6.82;2.40;;;;;;;17.53;100.00;100489.94;5032728;28;20204;-72
2021/08/17 10:10:50;;;;;;;8.80;2.72;;;;;;;17.88;100.00;100495.94;5033851;28;20215;-73
2021/08/17 10:13:19;;;;;;;8.40;2.80;;;;;;;18.07;100.00;100492.84;5052267;28;20623;-73
2021/08/17 10:15:45;;;;;;;7.18;2.28;;;;;;;18.13;100.00;100489.63;5036664;28;20219;-73
2021/08/17 10:18:12;;;;;;;7.10;2.65;;;;;;;18.20;100.00;100490.78;5044914;28;20282;-73
2021/08/17 10:20:47;;;;;;;9.07;2.63;;;;;;;18.27;100.00;100499.31;5051302;28;20225;-72
2021/08/17 10:23:21;;;;;;;10.73;3.03;;;;;;;18.23;100.00;100495.59;5049994;28;20206;-74
2021/08/17 10:26:00;;;;;;;11.52;2.83;;;;;;;18.01;100.00;100500.47;5028020;28;20634;-72
2021/08/17 10:28:38;;;;;;;8.23;2.78;;;;;;;17.98;100.00;100503.03;5022060;28;20216;-74
2021/08/17 10:31:14;;;;;;;8.75;3.25;;;;;;;18.26;100.00;100511.47;5032821;28;20224;-76
2021/08/17 10:33:43;;;;;;;7.70;2.83;;;;;;;18.23;100.00;100512.09;5032074;28;20625;-74
2021/08/17 10:36:10;;;;;;;9.43;3.38;;;;;;;18.56;100.00;100496.66;5019358;28;20284;-75
2021/08/17 10:38:36;;;;;;;8.93;3.70;;;;;;;18.54;98.50;100507.19;5032642;28;20199;-75
2021/08/17 10:41:06;;;;;;;9.73;2.97;;;;;;;18.27;100.00;100507.56;5036003;28;20265;-73
2021/08/17 10:43:34;;;;;;;10.25;3.17;;;;;;;18.09;100.00;100509.88;5064539;28;20199;-72
2021/08/17 10:46:09;;;;;;;6.30;2.95;;;;;;;18.01;100.00;100507.91;5024501;28;20234;-73
2021/08/17 10:51:22;;;;;;;9.68;3.47;;;;;;;17.97;100.00;100515.19;5053363;28;20226;-74
2021/08/17 10:54:03;;;;;;;8.57;3.40;;;;;;;18.00;100.00;100509.03;5053602;28;20209;-74
2021/08/17 10:56:32;;;;;;;7.07;3.35;;;;;;;18.32;100.00;100504.66;5043406;28;20582;-72
2021/08/17 10:59:01;;;;;;;9.70;4.43;;;;;;;18.61;99.28;100499.25;5052070;28;20689;-73
2021/08/17 11:01:42;;;;;;;4.80;2.90;;;;;;;18.83;96.03;100494.31;5019650;28;20259;-77
2021/08/17 11:04:18;;;;;;;9.07;3.30;;;;;;;18.87;95.69;100506.28;5015859;28;20267;-73
2021/08/17 11:06:48;;;;;;;7.15;3.28;;;;;;;18.88;92.27;100496.06;5032831;28;20235;-74
2021/08/17 11:09:17;;;;;;;5.72;3.28;;;;;;;18.48;95.63;100503.00;5035272;28;20204;-75
2021/08/17 11:12:03;;;;;;;7.30;3.85;;;;;;;18.82;97.07;100505.66;5037603;28;20230;-74
2021/08/17 11:14:32;;;;;;;7.40;3.40;;;;;;;18.22;100.00;100521.50;5036490;28;20215;-75
2021/08/17 11:17:05;;;;;;;8.55;3.60;;;;;;;18.45;100.00;100500.91;5037030;28;20204;-75